Northfield Falls, VT (05664)

4:10 AM EST on February 06, 2016 (GMT -0500)
KVTBERLI2 | | Change Station
CLOSE
Current Station
Personal Weather Station
Location: Berlin, VT
Elevation: 1220 ft
Nearby Weather Stations

Elev 1220 ft 44.21 °N, 72.67 °W | Updated 4 seconds ago

Mostly Cloudy
Mostly Cloudy
22.3 °F
Feels Like 22 °F
N
0.0
Wind Variable Wind from NW
Gusts 0.7 mph

Today
High -- | Low -- °F
--% Chance of Precip.
Yesterday
High -- | Low -- °F
Precip. -- in
Pressure 30.28 in
Visibility 10.0 miles
Clouds Overcast 3600 ft
Windchill 22 °F
Dew Point 11 °F
Humidity 61%
Rainfall 0.00 in
Snow Depth Not available.
7:03 AM 5:06 PM
Waning Crescent, 6% visible
METAR KMPV 060851Z AUTO 00000KT 10SM OVC036 M07/M11 A3022 RMK AO2 SLP254 T10721106 58002
Pressure 30.28 in
Visibility 10.0 miles
Clouds Overcast 3600 ft
Windchill 22 °F
Dew Point 11 °F
Humidity 61%
Rainfall 0.00 in
Snow Depth Not available.
7:03 AM 5:06 PM
Waning Crescent, 6% visible
METAR KMPV 060851Z AUTO 00000KT 10SM OVC036 M07/M11 A3022 RMK AO2 SLP254 T10721106 58002

10-Day Weather Forecast

Almanac

Astronomy

Feb. 06, 2016 Rise Set
Actual Time
Civil Twilight
Nautical Twilight
Astronomical Twilight
Moon
Length of Visible Light
Length of Day
Tomorrow will be .
, % of the Moon is Illuminated

Today's Extremes

State Highs State Lows

Community

WunderPhotos

Upload Photos

1,890,933 photos uploaded!

WunderBlog® & News

Nearby

Air Quality

  Air Quality AQ Index Pollutant
Not available.

Snow Depth

Station Depth Elevation

Earthquake Activity

City Distance Mag. Time & Date
Minimum magnitude displayed is 2.5.

Coastal Water Temperatures

Place Temperature

Stations

Nearby Weather Stations

Station Location Temp. Windchill Dew Point Humidity Wind Precip. Elev Updated Type
                   

Watches & Warnings

There are currently no watches in effect.